Check out our new PWSWeather beta!
PWSweather.com
Personal Weather Stations
Station Observations
OINOFYTA
Oinofyta Greece, OinofytaGR 320 11

Oinofyta GreeceOinofytaGR 320 11

Lat: 38.3080648, Lon: 23.6391172

Elevation: 354

Station Type: ProWeatherStation 1080

https://oinofytaweather.gr/

High Low Average
Temperature 106.7°F41.5°C 76.5°F24.7°C 93.3°F34.1°C
Dew Point 60.8°F16.0°C 37.6°F3.1°C 51.1°F10.6°C
Winds 5.5 mph 8.9 kmh Calm Calm 2.0 mph SE3.2 kmh SE
Wind Gusts 11.4 mph18.3 kmh -- 5.0 mph8.0 kmh
Humidity 52% 10% 27%
Pressure 29.91 in1012.9 mb 29.79 in1008.8 mb -
Precipitation 0.00 in0.0 mm - -
Hour Temp Dew Point Humidity Winds Wind Gusts Pressure Precip Precip Rate Daily Precip Total
12:00 AM 82.2°F27.9°C 56.9°F13.8°C 42% 0.8 mph WSW1.3 kmh WSW 3.8 mph6.1 kmh 29.91 in1012.9 mb 0.00 in0.0 mm 0.00 in0.0 mm 0.00 in0.0 mm
12:05 AM 82.8°F28.2°C 56.0°F13.3°C 40% 1.4 mph W2.3 kmh W 6.9 mph11.1 kmh 29.91 in1012.9 mb 0.00 in0.0 mm 0.00 in0.0 mm 0.00 in0.0 mm
12:10 AM 82.9°F28.3°C 55.5°F13.1°C 39% 1.4 mph W2.3 kmh W 6.9 mph11.1 kmh 29.91 in1012.9 mb 0.00 in0.0 mm 0.00 in0.0 mm 0.00 in0.0 mm
12:15 AM 82.9°F28.3°C 55.5°F13.1°C 39% 1.8 mph W2.9 kmh W 5.4 mph8.7 kmh 29.91 in1012.9 mb 0.00 in0.0 mm 0.00 in0.0 mm 0.00 in0.0 mm
12:20 AM 82.9°F28.3°C 55.5°F13.1°C 39% 2.3 mph W3.7 kmh W 5.4 mph8.7 kmh 29.91 in1012.9 mb 0.00 in0.0 mm 0.00 in0.0 mm 0.00 in0.0 mm
12:25 AM 82.8°F28.2°C 55.3°F12.9°C 39% 1.6 mph WSW2.6 kmh WSW 5.4 mph8.7 kmh 29.90 in1012.5 mb 0.00 in0.0 mm 0.00 in0.0 mm 0.00 in0.0 mm
12:30 AM 82.6°F28.1°C 55.9°F13.3°C 40% 0.8 mph SW1.3 kmh SW 4.5 mph7.2 kmh 29.91 in1012.9 mb 0.00 in0.0 mm 0.00 in0.0 mm 0.00 in0.0 mm
12:35 AM 82.4°F28.0°C 55.7°F13.2°C 40% 0.4 mph WSW0.6 kmh WSW 3.1 mph5.0 kmh 29.91 in1012.9 mb 0.00 in0.0 mm 0.00 in0.0 mm 0.00 in0.0 mm
12:40 AM 82.2°F27.9°C 55.5°F13.1°C 40% 0.2 mph WSW0.3 kmh WSW 3.8 mph6.1 kmh 29.90 in1012.5 mb 0.00 in0.0 mm 0.00 in0.0 mm 0.00 in0.0 mm
12:45 AM 82.0°F27.8°C 56.1°F13.4°C 41% Calm Calm 3.8 mph6.1 kmh 29.91 in1012.9 mb 0.00 in0.0 mm 0.00 in0.0 mm 0.00 in0.0 mm
12:50 AM 82.0°F27.8°C 56.1°F13.4°C 41% 0.1 mph W0.2 kmh W 3.8 mph6.1 kmh 29.90 in1012.5 mb 0.00 in0.0 mm 0.00 in0.0 mm 0.00 in0.0 mm
12:55 AM 82.2°F27.9°C 55.5°F13.1°C 40% 0.4 mph WSW0.6 kmh WSW 3.8 mph6.1 kmh 29.90 in1012.5 mb 0.00 in0.0 mm 0.00 in0.0 mm 0.00 in0.0 mm
01:00 AM 82.4°F28.0°C 55.7°F13.2°C 40% 0.6 mph W1.0 kmh W 3.1 mph5.0 kmh 29.90 in1012.5 mb 0.00 in0.0 mm 0.00 in0.0 mm 0.00 in0.0 mm
01:05 AM 82.4°F28.0°C 55.7°F13.2°C 40% 0.7 mph W1.1 kmh W 3.1 mph5.0 kmh 29.90 in1012.5 mb 0.00 in0.0 mm 0.00 in0.0 mm 0.00 in0.0 mm
01:10 AM 82.4°F28.0°C 55.7°F13.2°C 40% 0.6 mph WSW1.0 kmh WSW 3.1 mph5.0 kmh 29.90 in1012.5 mb 0.00 in0.0 mm 0.00 in0.0 mm 0.00 in0.0 mm
01:15 AM 82.4°F28.0°C 55.7°F13.2°C 40% 0.4 mph SW0.6 kmh SW 3.1 mph5.0 kmh 29.90 in1012.5 mb 0.00 in0.0 mm 0.00 in0.0 mm 0.00 in0.0 mm
01:20 AM 82.4°F28.0°C 55.0°F12.8°C 39% 0.2 mph SW0.3 kmh SW 3.1 mph5.0 kmh 29.90 in1012.5 mb 0.00 in0.0 mm 0.00 in0.0 mm 0.00 in0.0 mm
01:25 AM 82.6°F28.1°C 55.2°F12.9°C 39% 0.7 mph WSW1.1 kmh WSW 4.5 mph7.2 kmh 29.90 in1012.5 mb 0.00 in0.0 mm 0.00 in0.0 mm 0.00 in0.0 mm
01:30 AM 82.8°F28.2°C 55.3°F12.9°C 39% 0.9 mph WSW1.4 kmh WSW 4.5 mph7.2 kmh 29.90 in1012.5 mb 0.00 in0.0 mm 0.00 in0.0 mm 0.00 in0.0 mm
01:35 AM 82.6°F28.1°C 55.9°F13.3°C 40% 0.5 mph WSW0.8 kmh WSW 4.5 mph7.2 kmh 29.90 in1012.5 mb 0.00 in0.0 mm 0.00 in0.0 mm 0.00 in0.0 mm
01:40 AM 82.2°F27.9°C 54.8°F12.7°C 39% 0.4 mph WSW0.6 kmh WSW 3.8 mph6.1 kmh 29.90 in1012.5 mb 0.00 in0.0 mm 0.00 in0.0 mm 0.00 in0.0 mm
01:45 AM 82.4°F28.0°C 55.7°F13.2°C 40% 0.6 mph WSW1.0 kmh WSW 3.8 mph6.1 kmh 29.90 in1012.5 mb 0.00 in0.0 mm 0.00 in0.0 mm 0.00 in0.0 mm
01:50 AM 82.2°F27.9°C 55.5°F13.1°C 40% 0.8 mph WSW1.3 kmh WSW 3.8 mph6.1 kmh 29.90 in1012.5 mb 0.00 in0.0 mm 0.00 in0.0 mm 0.00 in0.0 mm
01:55 AM 82.4°F28.0°C 55.0°F12.8°C 39% 1.1 mph WSW1.8 kmh WSW 3.8 mph6.1 kmh 29.90 in1012.5 mb 0.00 in0.0 mm 0.00 in0.0 mm 0.00 in0.0 mm
02:00 AM 82.2°F27.9°C 55.5°F13.1°C 40% 0.8 mph WSW1.3 kmh WSW 3.8 mph6.1 kmh 29.90 in1012.5 mb 0.00 in0.0 mm 0.00 in0.0 mm 0.00 in0.0 mm
02:05 AM 81.9°F27.7°C 55.2°F12.9°C 40% 0.4 mph WSW0.6 kmh WSW 3.8 mph6.1 kmh 29.90 in1012.5 mb 0.00 in0.0 mm 0.00 in0.0 mm 0.00 in0.0 mm
02:10 AM 81.9°F27.7°C 55.2°F12.9°C 40% 0.8 mph W1.3 kmh W 4.5 mph7.2 kmh 29.89 in1012.2 mb 0.00 in0.0 mm 0.00 in0.0 mm 0.00 in0.0 mm
02:15 AM 82.2°F27.9°C 55.5°F13.1°C 40% 1.4 mph W2.3 kmh W 6.9 mph11.1 kmh 29.89 in1012.2 mb 0.00 in0.0 mm 0.00 in0.0 mm 0.00 in0.0 mm
02:20 AM 82.0°F27.8°C 55.4°F13.0°C 40% 1.3 mph WSW2.1 kmh WSW 6.9 mph11.1 kmh 29.90 in1012.5 mb 0.00 in0.0 mm 0.00 in0.0 mm 0.00 in0.0 mm
02:25 AM 81.9°F27.7°C 55.9°F13.3°C 41% 0.7 mph W1.1 kmh W 6.0 mph9.7 kmh 29.89 in1012.2 mb 0.00 in0.0 mm 0.00 in0.0 mm 0.00 in0.0 mm
02:30 AM 81.7°F27.6°C 55.7°F13.2°C 41% 0.2 mph WSW0.3 kmh WSW 2.2 mph3.5 kmh 29.89 in1012.2 mb 0.00 in0.0 mm 0.00 in0.0 mm 0.00 in0.0 mm
02:35 AM 81.3°F27.4°C 55.4°F13.0°C 41% Calm Calm 3.1 mph5.0 kmh 29.89 in1012.2 mb 0.00 in0.0 mm 0.00 in0.0 mm 0.00 in0.0 mm
02:40 AM 81.1°F27.3°C 55.2°F12.9°C 41% 0.5 mph SW0.8 kmh SW 5.4 mph8.7 kmh 29.89 in1012.2 mb 0.00 in0.0 mm 0.00 in0.0 mm 0.00 in0.0 mm
02:45 AM 81.1°F27.3°C 55.9°F13.3°C 42% 0.7 mph SW1.1 kmh SW 5.4 mph8.7 kmh 29.89 in1012.2 mb 0.00 in0.0 mm 0.00 in0.0 mm 0.00 in0.0 mm
02:50 AM 81.3°F27.4°C 56.1°F13.4°C 42% 0.2 mph SW0.3 kmh SW 2.2 mph3.5 kmh 29.89 in1012.2 mb 0.00 in0.0 mm 0.00 in0.0 mm 0.00 in0.0 mm
02:55 AM 80.8°F27.1°C 55.6°F13.1°C 42% Calm Calm 2.2 mph3.5 kmh 29.89 in1012.2 mb 0.00 in0.0 mm 0.00 in0.0 mm 0.00 in0.0 mm
03:00 AM 79.7°F26.5°C 54.6°F12.6°C 42% Calm Calm 1.6 mph2.6 kmh 29.89 in1012.2 mb 0.00 in0.0 mm 0.00 in0.0 mm 0.00 in0.0 mm
03:05 AM 79.0°F26.1°C 54.0°F12.2°C 42% Calm Calm 1.6 mph2.6 kmh 29.89 in1012.2 mb 0.00 in0.0 mm 0.00 in0.0 mm 0.00 in0.0 mm
03:10 AM 78.6°F25.9°C 53.6°F12.0°C 42% Calm Calm -- 29.89 in1012.2 mb 0.00 in0.0 mm 0.00 in0.0 mm 0.00 in0.0 mm
03:15 AM 79.0°F26.1°C 54.0°F12.2°C 42% 0.2 mph SSW0.3 kmh SSW 3.1 mph5.0 kmh 29.89 in1012.2 mb 0.00 in0.0 mm 0.00 in0.0 mm 0.00 in0.0 mm
03:20 AM 79.2°F26.2°C 54.1°F12.3°C 42% 0.2 mph SSW0.3 kmh SSW 3.1 mph5.0 kmh 29.89 in1012.2 mb 0.00 in0.0 mm 0.00 in0.0 mm 0.00 in0.0 mm
03:25 AM 79.0°F26.1°C 54.0°F12.2°C 42% Calm Calm 1.6 mph2.6 kmh 29.89 in1012.2 mb 0.00 in0.0 mm 0.00 in0.0 mm 0.00 in0.0 mm
03:30 AM 78.4°F25.8°C 53.5°F11.9°C 42% Calm Calm -- 29.89 in1012.2 mb 0.00 in0.0 mm 0.00 in0.0 mm 0.00 in0.0 mm
03:35 AM 78.3°F25.7°C 53.3°F11.8°C 42% Calm Calm -- 29.89 in1012.2 mb 0.00 in0.0 mm 0.00 in0.0 mm 0.00 in0.0 mm
03:40 AM 78.3°F25.7°C 53.3°F11.8°C 42% Calm Calm -- 29.89 in1012.2 mb 0.00 in0.0 mm 0.00 in0.0 mm 0.00 in0.0 mm
03:45 AM 78.4°F25.8°C 53.5°F11.9°C 42% Calm Calm -- 29.89 in1012.2 mb 0.00 in0.0 mm 0.00 in0.0 mm 0.00 in0.0 mm
03:50 AM 79.0°F26.1°C 54.0°F12.2°C 42% Calm Calm -- 29.89 in1012.2 mb 0.00 in0.0 mm 0.00 in0.0 mm 0.00 in0.0 mm
03:55 AM 79.2°F26.2°C 56.0°F13.3°C 45% 0.1 mph SW0.2 kmh SW 2.2 mph3.5 kmh 29.89 in1012.2 mb 0.00 in0.0 mm 0.00 in0.0 mm 0.00 in0.0 mm
04:00 AM 79.0°F26.1°C 55.9°F13.3°C 45% 0.1 mph WSW0.2 kmh WSW 2.2 mph3.5 kmh 29.89 in1012.2 mb 0.00 in0.0 mm 0.00 in0.0 mm 0.00 in0.0 mm
04:05 AM 79.2°F26.2°C 56.0°F13.3°C 45% 0.1 mph WSW0.2 kmh WSW 1.6 mph2.6 kmh 29.89 in1012.2 mb 0.00 in0.0 mm 0.00 in0.0 mm 0.00 in0.0 mm
04:10 AM 79.2°F26.2°C 56.0°F13.3°C 45% 0.1 mph WSW0.2 kmh WSW 3.1 mph5.0 kmh 29.89 in1012.2 mb 0.00 in0.0 mm 0.00 in0.0 mm 0.00 in0.0 mm
04:15 AM 79.0°F26.1°C 55.9°F13.3°C 45% 0.5 mph WSW0.8 kmh WSW 3.8 mph6.1 kmh 29.89 in1012.2 mb 0.00 in0.0 mm 0.00 in0.0 mm 0.00 in0.0 mm
04:20 AM 79.0°F26.1°C 55.9°F13.3°C 45% 1.3 mph WSW2.1 kmh WSW 4.5 mph7.2 kmh 29.89 in1012.2 mb 0.00 in0.0 mm 0.00 in0.0 mm 0.00 in0.0 mm
04:25 AM 79.0°F26.1°C 55.9°F13.3°C 45% 1.7 mph WSW2.7 kmh WSW 4.5 mph7.2 kmh 29.89 in1012.2 mb 0.00 in0.0 mm 0.00 in0.0 mm 0.00 in0.0 mm
04:30 AM 79.2°F26.2°C 56.0°F13.3°C 45% 1.6 mph W2.6 kmh W 4.5 mph7.2 kmh 29.89 in1012.2 mb 0.00 in0.0 mm 0.00 in0.0 mm 0.00 in0.0 mm
04:35 AM 79.0°F26.1°C 55.9°F13.3°C 45% 1.1 mph WSW1.8 kmh WSW 4.5 mph7.2 kmh 29.89 in1012.2 mb 0.00 in0.0 mm 0.00 in0.0 mm 0.00 in0.0 mm
04:40 AM 78.8°F26.0°C 56.3°F13.5°C 46% 0.4 mph WSW0.6 kmh WSW 3.8 mph6.1 kmh 29.89 in1012.2 mb 0.00 in0.0 mm 0.00 in0.0 mm 0.00 in0.0 mm
04:45 AM 78.4°F25.8°C 57.2°F14.0°C 48% 0.1 mph SW0.2 kmh SW 2.2 mph3.5 kmh 29.89 in1012.2 mb 0.00 in0.0 mm 0.00 in0.0 mm 0.00 in0.0 mm
04:50 AM 78.3°F25.7°C 57.0°F13.9°C 48% 0.3 mph SW0.5 kmh SW 2.2 mph3.5 kmh 29.89 in1012.2 mb 0.00 in0.0 mm 0.00 in0.0 mm 0.00 in0.0 mm
04:55 AM 78.3°F25.7°C 57.0°F13.9°C 48% 0.3 mph SW0.5 kmh SW 3.1 mph5.0 kmh 29.89 in1012.2 mb 0.00 in0.0 mm 0.00 in0.0 mm 0.00 in0.0 mm
05:00 AM 78.1°F25.6°C 56.8°F13.8°C 48% 0.1 mph SW0.2 kmh SW 3.1 mph5.0 kmh 29.90 in1012.5 mb 0.00 in0.0 mm 0.00 in0.0 mm 0.00 in0.0 mm
05:05 AM 77.9°F25.5°C 57.2°F14.0°C 49% 0.1 mph WSW0.2 kmh WSW 2.2 mph3.5 kmh 29.90 in1012.5 mb 0.00 in0.0 mm 0.00 in0.0 mm 0.00 in0.0 mm
05:10 AM 77.5°F25.3°C 56.9°F13.8°C 49% 0.2 mph WSW0.3 kmh WSW 2.2 mph3.5 kmh 29.90 in1012.5 mb 0.00 in0.0 mm 0.00 in0.0 mm 0.00 in0.0 mm
05:15 AM 77.5°F25.3°C 56.9°F13.8°C 49% 0.1 mph SW0.2 kmh SW 2.2 mph3.5 kmh 29.89 in1012.2 mb 0.00 in0.0 mm 0.00 in0.0 mm 0.00 in0.0 mm
05:20 AM 77.4°F25.2°C 57.3°F14.1°C 50% 0.4 mph S0.6 kmh S 3.1 mph5.0 kmh 29.90 in1012.5 mb 0.00 in0.0 mm 0.00 in0.0 mm 0.00 in0.0 mm
05:25 AM 77.0°F25.0°C 57.5°F14.2°C 51% 1.3 mph SSW2.1 kmh SSW 3.8 mph6.1 kmh 29.90 in1012.5 mb 0.00 in0.0 mm 0.00 in0.0 mm 0.00 in0.0 mm
05:30 AM 76.5°F24.7°C 57.0°F13.9°C 51% 1.7 mph SSW2.7 kmh SSW 3.8 mph6.1 kmh 29.90 in1012.5 mb 0.00 in0.0 mm 0.00 in0.0 mm 0.00 in0.0 mm
05:35 AM 76.6°F24.8°C 57.2°F14.0°C 51% 1.3 mph SW2.1 kmh SW 4.5 mph7.2 kmh 29.90 in1012.5 mb 0.00 in0.0 mm 0.00 in0.0 mm 0.00 in0.0 mm
05:40 AM 76.6°F24.8°C 57.2°F14.0°C 51% 1.8 mph SW2.9 kmh SW 4.5 mph7.2 kmh 29.89 in1012.2 mb 0.00 in0.0 mm 0.00 in0.0 mm 0.00 in0.0 mm
05:45 AM 76.5°F24.7°C 57.0°F13.9°C 51% 2.0 mph SW3.2 kmh SW 4.5 mph7.2 kmh 29.90 in1012.5 mb 0.00 in0.0 mm 0.00 in0.0 mm 0.00 in0.0 mm
05:50 AM 76.8°F24.9°C 57.4°F14.1°C 51% 1.5 mph SW2.4 kmh SW 3.8 mph6.1 kmh 29.90 in1012.5 mb 0.00 in0.0 mm 0.00 in0.0 mm 0.00 in0.0 mm
05:55 AM 77.2°F25.1°C 57.7°F14.3°C 51% 1.4 mph SW2.3 kmh SW 3.8 mph6.1 kmh 29.90 in1012.5 mb 0.00 in0.0 mm 0.00 in0.0 mm 0.00 in0.0 mm
06:00 AM 77.4°F25.2°C 57.3°F14.1°C 50% 0.6 mph SW1.0 kmh SW 3.8 mph6.1 kmh 29.90 in1012.5 mb 0.00 in0.0 mm 0.00 in0.0 mm 0.00 in0.0 mm
06:05 AM 77.5°F25.3°C 57.5°F14.2°C 50% 0.1 mph SW0.2 kmh SW 2.2 mph3.5 kmh 29.90 in1012.5 mb 0.00 in0.0 mm 0.00 in0.0 mm 0.00 in0.0 mm
06:10 AM 77.7°F25.4°C 57.6°F14.2°C 50% Calm Calm 1.6 mph2.6 kmh 29.90 in1012.5 mb 0.00 in0.0 mm 0.00 in0.0 mm 0.00 in0.0 mm
06:15 AM 77.7°F25.4°C 58.2°F14.6°C 51% 0.1 mph SSW0.2 kmh SSW 2.2 mph3.5 kmh 29.90 in1012.5 mb 0.00 in0.0 mm 0.00 in0.0 mm 0.00 in0.0 mm
06:20 AM 77.7°F25.4°C 58.7°F14.8°C 52% 0.4 mph SW0.6 kmh SW 2.2 mph3.5 kmh 29.90 in1012.5 mb 0.00 in0.0 mm 0.00 in0.0 mm 0.00 in0.0 mm
06:25 AM 77.9°F25.5°C 58.9°F14.9°C 52% 0.4 mph SSW0.6 kmh SSW 2.2 mph3.5 kmh 29.90 in1012.5 mb 0.00 in0.0 mm 0.00 in0.0 mm 0.00 in0.0 mm
06:30 AM 78.1°F25.6°C 59.1°F15.1°C 52% 0.1 mph SSW0.2 kmh SSW 2.2 mph3.5 kmh 29.90 in1012.5 mb 0.00 in0.0 mm 0.00 in0.0 mm 0.00 in0.0 mm
06:35 AM 78.3°F25.7°C 58.7°F14.8°C 51% 0.2 mph WSW0.3 kmh WSW 3.8 mph6.1 kmh 29.90 in1012.5 mb 0.00 in0.0 mm 0.00 in0.0 mm 0.00 in0.0 mm
06:40 AM 78.4°F25.8°C 58.9°F14.9°C 51% 0.6 mph WSW1.0 kmh WSW 3.8 mph6.1 kmh 29.90 in1012.5 mb 0.00 in0.0 mm 0.00 in0.0 mm 0.00 in0.0 mm
06:45 AM 78.8°F26.0°C 58.6°F14.8°C 50% 0.4 mph SW0.6 kmh SW 3.1 mph5.0 kmh 29.90 in1012.5 mb 0.00 in0.0 mm 0.00 in0.0 mm 0.00 in0.0 mm
06:50 AM 79.2°F26.2°C 59.0°F15.0°C 50% 0.1 mph SW0.2 kmh SW 3.1 mph5.0 kmh 29.90 in1012.5 mb 0.00 in0.0 mm 0.00 in0.0 mm 0.00 in0.0 mm
06:55 AM 79.7°F26.5°C 59.5°F15.3°C 50% 0.5 mph SW0.8 kmh SW 3.1 mph5.0 kmh 29.90 in1012.5 mb 0.00 in0.0 mm 0.00 in0.0 mm 0.00 in0.0 mm
07:00 AM 80.2°F26.8°C 60.0°F15.6°C 50% 0.6 mph SW1.0 kmh SW 3.1 mph5.0 kmh 29.90 in1012.5 mb 0.00 in0.0 mm 0.00 in0.0 mm 0.00 in0.0 mm
07:05 AM 80.6°F27.0°C 60.3°F15.7°C 50% 0.4 mph SW0.6 kmh SW 3.1 mph5.0 kmh 29.90 in1012.5 mb 0.00 in0.0 mm 0.00 in0.0 mm 0.00 in0.0 mm
07:10 AM 81.3°F27.4°C 60.4°F15.8°C 49% 0.6 mph SW1.0 kmh SW 3.1 mph5.0 kmh 29.90 in1012.5 mb 0.00 in0.0 mm 0.00 in0.0 mm 0.00 in0.0 mm
07:15 AM 81.9°F27.7°C 60.3°F15.7°C 48% 1.1 mph SW1.8 kmh SW 4.5 mph7.2 kmh 29.90 in1012.5 mb 0.00 in0.0 mm 0.00 in0.0 mm 0.00 in0.0 mm
07:20 AM 82.4°F28.0°C 60.8°F16.0°C 48% 1.1 mph WSW1.8 kmh WSW 4.5 mph7.2 kmh 29.90 in1012.5 mb 0.00 in0.0 mm 0.00 in0.0 mm 0.00 in0.0 mm
07:25 AM 82.9°F28.3°C 60.1°F15.6°C 46% 0.7 mph WSW1.1 kmh WSW 3.1 mph5.0 kmh 29.90 in1012.5 mb 0.00 in0.0 mm 0.00 in0.0 mm 0.00 in0.0 mm
07:30 AM 83.5°F28.6°C 60.0°F15.6°C 45% 0.8 mph SW1.3 kmh SW 3.1 mph5.0 kmh 29.91 in1012.9 mb 0.00 in0.0 mm 0.00 in0.0 mm 0.00 in0.0 mm
07:35 AM 84.4°F29.1°C 59.5°F15.3°C 43% 0.5 mph SW0.8 kmh SW 3.1 mph5.0 kmh 29.90 in1012.5 mb 0.00 in0.0 mm 0.00 in0.0 mm 0.00 in0.0 mm
07:40 AM 85.3°F29.6°C 59.0°F15.0°C 41% 0.1 mph SSW0.2 kmh SSW 1.6 mph2.6 kmh 29.90 in1012.5 mb 0.00 in0.0 mm 0.00 in0.0 mm 0.00 in0.0 mm
07:45 AM 86.2°F30.1°C 59.8°F15.4°C 41% 0.1 mph SSW0.2 kmh SSW 1.6 mph2.6 kmh 29.90 in1012.5 mb 0.00 in0.0 mm 0.00 in0.0 mm 0.00 in0.0 mm
07:50 AM 86.9°F30.5°C 57.5°F14.2°C 37% Calm Calm 1.6 mph2.6 kmh 29.90 in1012.5 mb 0.00 in0.0 mm 0.00 in0.0 mm 0.00 in0.0 mm
07:55 AM 87.4°F30.8°C 58.8°F14.9°C 38% 0.1 mph SW0.2 kmh SW 1.6 mph2.6 kmh 29.90 in1012.5 mb 0.00 in0.0 mm 0.00 in0.0 mm 0.00 in0.0 mm
08:00 AM 88.3°F31.3°C 59.6°F15.3°C 38% 0.1 mph WSW0.2 kmh WSW 1.6 mph2.6 kmh 29.90 in1012.5 mb 0.00 in0.0 mm 0.00 in0.0 mm 0.00 in0.0 mm
08:05 AM 89.1°F31.7°C 59.5°F15.3°C 37% 0.4 mph SE0.6 kmh SE 3.1 mph5.0 kmh 29.90 in1012.5 mb 0.00 in0.0 mm 0.00 in0.0 mm 0.00 in0.0 mm
08:10 AM 89.6°F32.0°C 59.2°F15.1°C 36% 0.5 mph S0.8 kmh S 3.1 mph5.0 kmh 29.90 in1012.5 mb 0.00 in0.0 mm 0.00 in0.0 mm 0.00 in0.0 mm
08:15 AM 90.1°F32.3°C 58.0°F14.4°C 34% 0.1 mph SW0.2 kmh SW 2.2 mph3.5 kmh 29.90 in1012.5 mb 0.00 in0.0 mm 0.00 in0.0 mm 0.00 in0.0 mm
08:20 AM 90.9°F32.7°C 58.7°F14.8°C 34% Calm Calm 1.6 mph2.6 kmh 29.90 in1012.5 mb 0.00 in0.0 mm 0.00 in0.0 mm 0.00 in0.0 mm
08:25 AM 91.4°F33.0°C 57.5°F14.2°C 32% 0.3 mph SSW0.5 kmh SSW 3.1 mph5.0 kmh 29.90 in1012.5 mb 0.00 in0.0 mm 0.00 in0.0 mm 0.00 in0.0 mm
08:30 AM 91.9°F33.3°C 60.4°F15.8°C 35% 0.4 mph SSW0.6 kmh SSW 3.1 mph5.0 kmh 29.90 in1012.5 mb 0.00 in0.0 mm 0.00 in0.0 mm 0.00 in0.0 mm
08:35 AM 92.5°F33.6°C 57.5°F14.2°C 31% 0.3 mph SW0.5 kmh SW 2.2 mph3.5 kmh 29.90 in1012.5 mb 0.00 in0.0 mm 0.00 in0.0 mm 0.00 in0.0 mm
08:40 AM 93.0°F33.9°C 53.1°F11.7°C 26% 0.4 mph SW0.6 kmh SW 3.1 mph5.0 kmh 29.90 in1012.5 mb 0.00 in0.0 mm 0.00 in0.0 mm 0.00 in0.0 mm
08:45 AM 93.7°F34.3°C 52.7°F11.5°C 25% 0.2 mph S0.3 kmh S 3.1 mph5.0 kmh 29.90 in1012.5 mb 0.00 in0.0 mm 0.00 in0.0 mm 0.00 in0.0 mm
08:50 AM 94.5°F34.7°C 54.3°F12.4°C 26% 0.1 mph WSW0.2 kmh WSW 2.2 mph3.5 kmh 29.89 in1012.2 mb 0.00 in0.0 mm 0.00 in0.0 mm 0.00 in0.0 mm
08:55 AM 94.8°F34.9°C 57.7°F14.3°C 29% 0.7 mph SW1.1 kmh SW 3.1 mph5.0 kmh 29.89 in1012.2 mb 0.00 in0.0 mm 0.00 in0.0 mm 0.00 in0.0 mm
09:00 AM 95.0°F35.0°C 57.8°F14.3°C 29% 0.9 mph SW1.4 kmh SW 3.1 mph5.0 kmh 29.89 in1012.2 mb 0.00 in0.0 mm 0.00 in0.0 mm 0.00 in0.0 mm
09:05 AM 95.4°F35.2°C 56.2°F13.4°C 27% 0.4 mph SW0.6 kmh SW 3.1 mph5.0 kmh 29.89 in1012.2 mb 0.00 in0.0 mm 0.00 in0.0 mm 0.00 in0.0 mm
09:10 AM 95.5°F35.3°C 54.2°F12.3°C 25% 0.5 mph SE0.8 kmh SE 3.8 mph6.1 kmh 29.90 in1012.5 mb 0.00 in0.0 mm 0.00 in0.0 mm 0.00 in0.0 mm
09:15 AM 95.9°F35.5°C 54.5°F12.5°C 25% 1.5 mph E2.4 kmh E 4.5 mph7.2 kmh 29.89 in1012.2 mb 0.00 in0.0 mm 0.00 in0.0 mm 0.00 in0.0 mm
09:20 AM 96.1°F35.6°C 49.9°F9.9°C 21% 1.7 mph ESE2.7 kmh ESE 5.4 mph8.7 kmh 29.89 in1012.2 mb 0.00 in0.0 mm 0.00 in0.0 mm 0.00 in0.0 mm
09:25 AM 96.6°F35.9°C 51.6°F10.9°C 22% 0.8 mph SE1.3 kmh SE 5.4 mph8.7 kmh 29.89 in1012.2 mb 0.00 in0.0 mm 0.00 in0.0 mm 0.00 in0.0 mm
09:30 AM 97.0°F36.1°C 49.3°F9.6°C 20% 1.2 mph E1.9 kmh E 4.5 mph7.2 kmh 29.89 in1012.2 mb 0.00 in0.0 mm 0.00 in0.0 mm 0.00 in0.0 mm
09:35 AM 97.2°F36.2°C 49.5°F9.7°C 20% 1.3 mph E2.1 kmh E 4.5 mph7.2 kmh 29.89 in1012.2 mb 0.00 in0.0 mm 0.00 in0.0 mm 0.00 in0.0 mm
09:40 AM 97.7°F36.5°C 48.5°F9.2°C 19% 1.1 mph E1.8 kmh E 5.4 mph8.7 kmh 29.89 in1012.2 mb 0.00 in0.0 mm 0.00 in0.0 mm 0.00 in0.0 mm
09:45 AM 98.1°F36.7°C 51.5°F10.8°C 21% 1.6 mph E2.6 kmh E 5.4 mph8.7 kmh 29.89 in1012.2 mb 0.00 in0.0 mm 0.00 in0.0 mm 0.00 in0.0 mm
09:50 AM 98.2°F36.8°C 49.0°F9.4°C 19% 1.8 mph ENE2.9 kmh ENE 4.5 mph7.2 kmh 29.89 in1012.2 mb 0.00 in0.0 mm 0.00 in0.0 mm 0.00 in0.0 mm
09:55 AM 98.4°F36.9°C 46.2°F7.9°C 17% 1.8 mph NE2.9 kmh NE 5.4 mph8.7 kmh 29.89 in1012.2 mb 0.00 in0.0 mm 0.00 in0.0 mm 0.00 in0.0 mm
10:00 AM 98.8°F37.1°C 44.9°F7.2°C 16% 1.8 mph ENE2.9 kmh ENE 6.9 mph11.1 kmh 29.89 in1012.2 mb 0.00 in0.0 mm 0.00 in0.0 mm 0.00 in0.0 mm
10:05 AM 99.5°F37.5°C 47.0°F8.3°C 17% 2.4 mph E3.9 kmh E 7.6 mph12.2 kmh 29.88 in1011.9 mb 0.00 in0.0 mm 0.00 in0.0 mm 0.00 in0.0 mm
10:10 AM 99.7°F37.6°C 47.2°F8.4°C 17% 3.3 mph ESE5.3 kmh ESE 7.6 mph12.2 kmh 29.88 in1011.9 mb 0.00 in0.0 mm 0.00 in0.0 mm 0.00 in0.0 mm
10:15 AM 99.9°F37.7°C 44.0°F6.7°C 15% 3.3 mph ESE5.3 kmh ESE 7.6 mph12.2 kmh 29.88 in1011.9 mb 0.00 in0.0 mm 0.00 in0.0 mm 0.00 in0.0 mm
10:20 AM 100.2°F37.9°C 46.0°F7.8°C 16% 2.5 mph E4.0 kmh E 6.9 mph11.1 kmh 29.89 in1012.2 mb 0.00 in0.0 mm 0.00 in0.0 mm 0.00 in0.0 mm
10:25 AM 100.4°F38.0°C 46.2°F7.9°C 16% 2.6 mph E4.2 kmh E 6.9 mph11.1 kmh 29.88 in1011.9 mb 0.00 in0.0 mm 0.00 in0.0 mm 0.00 in0.0 mm
10:30 AM 100.6°F38.1°C 46.3°F7.9°C 16% 3.3 mph E5.3 kmh E 6.9 mph11.1 kmh 29.88 in1011.9 mb 0.00 in0.0 mm 0.00 in0.0 mm 0.00 in0.0 mm
10:35 AM 100.6°F38.1°C 42.8°F6.0°C 14% 3.4 mph E5.5 kmh E 6.9 mph11.1 kmh 29.88 in1011.9 mb 0.00 in0.0 mm 0.00 in0.0 mm 0.00 in0.0 mm
10:40 AM 100.8°F38.2°C 42.9°F6.1°C 14% 2.7 mph SE4.3 kmh SE 6.0 mph9.7 kmh 29.88 in1011.9 mb 0.00 in0.0 mm 0.00 in0.0 mm 0.00 in0.0 mm
10:45 AM 101.3°F38.5°C 43.4°F6.3°C 14% 1.9 mph SSW3.1 kmh SSW 5.4 mph8.7 kmh 29.88 in1011.9 mb 0.00 in0.0 mm 0.00 in0.0 mm 0.00 in0.0 mm
10:50 AM 101.7°F38.7°C 43.6°F6.4°C 14% 1.3 mph SSW2.1 kmh SSW 6.9 mph11.1 kmh 29.88 in1011.9 mb 0.00 in0.0 mm 0.00 in0.0 mm 0.00 in0.0 mm
10:55 AM 102.2°F39.0°C 47.6°F8.7°C 16% 1.8 mph SE2.9 kmh SE 6.9 mph11.1 kmh 29.88 in1011.9 mb 0.00 in0.0 mm 0.00 in0.0 mm 0.00 in0.0 mm
11:00 AM 102.2°F39.0°C 45.9°F7.7°C 15% 1.9 mph SE3.1 kmh SE 6.0 mph9.7 kmh 29.87 in1011.5 mb 0.00 in0.0 mm 0.00 in0.0 mm 0.00 in0.0 mm
11:05 AM 102.6°F39.2°C 42.4°F5.8°C 13% 1.7 mph ESE2.7 kmh ESE 7.6 mph12.2 kmh 29.87 in1011.5 mb 0.00 in0.0 mm 0.00 in0.0 mm 0.00 in0.0 mm
11:10 AM 103.1°F39.5°C 44.8°F7.1°C 14% 3.6 mph E5.8 kmh E 9.2 mph14.8 kmh 29.88 in1011.9 mb 0.00 in0.0 mm 0.00 in0.0 mm 0.00 in0.0 mm
11:15 AM 102.9°F39.4°C 42.7°F5.9°C 13% 4.2 mph E6.8 kmh E 9.2 mph14.8 kmh 29.87 in1011.5 mb 0.00 in0.0 mm 0.00 in0.0 mm 0.00 in0.0 mm
11:20 AM 103.3°F39.6°C 44.9°F7.2°C 14% 3.0 mph NE4.8 kmh NE 9.2 mph14.8 kmh 29.87 in1011.5 mb 0.00 in0.0 mm 0.00 in0.0 mm 0.00 in0.0 mm
11:25 AM 103.6°F39.8°C 41.2°F5.1°C 12% 2.7 mph NE4.3 kmh NE 9.2 mph14.8 kmh 29.88 in1011.9 mb 0.00 in0.0 mm 0.00 in0.0 mm 0.00 in0.0 mm
11:30 AM 103.8°F39.9°C 43.4°F6.3°C 13% 3.3 mph NE5.3 kmh NE 7.6 mph12.2 kmh 29.87 in1011.5 mb 0.00 in0.0 mm 0.00 in0.0 mm 0.00 in0.0 mm
11:35 AM 103.5°F39.7°C 41.0°F5.0°C 12% 4.2 mph ENE6.8 kmh ENE 8.3 mph13.4 kmh 29.87 in1011.5 mb 0.00 in0.0 mm 0.00 in0.0 mm 0.00 in0.0 mm
11:40 AM 103.3°F39.6°C 40.9°F4.9°C 12% 3.8 mph ENE6.1 kmh ENE 8.3 mph13.4 kmh 29.87 in1011.5 mb 0.00 in0.0 mm 0.00 in0.0 mm 0.00 in0.0 mm
11:45 AM 103.5°F39.7°C 41.0°F5.0°C 12% 3.4 mph NE5.5 kmh NE 8.3 mph13.4 kmh 29.87 in1011.5 mb 0.00 in0.0 mm 0.00 in0.0 mm 0.00 in0.0 mm
11:50 AM 103.5°F39.7°C 43.1°F6.2°C 13% 3.2 mph NE5.1 kmh NE 8.3 mph13.4 kmh 29.86 in1011.2 mb 0.00 in0.0 mm 0.00 in0.0 mm 0.00 in0.0 mm
11:55 AM 103.6°F39.8°C 41.2°F5.1°C 12% 2.9 mph ENE4.7 kmh ENE 6.0 mph9.7 kmh 29.86 in1011.2 mb 0.00 in0.0 mm 0.00 in0.0 mm 0.00 in0.0 mm
12:00 PM 104.0°F40.0°C 41.4°F5.2°C 12% 3.2 mph E5.1 kmh E 7.6 mph12.2 kmh 29.86 in1011.2 mb 0.00 in0.0 mm 0.00 in0.0 mm 0.00 in0.0 mm
12:05 PM 104.2°F40.1°C 41.6°F5.3°C 12% 3.1 mph ENE5.0 kmh ENE 7.6 mph12.2 kmh 29.86 in1011.2 mb 0.00 in0.0 mm 0.00 in0.0 mm 0.00 in0.0 mm
12:10 PM 104.2°F40.1°C 41.6°F5.3°C 12% 3.5 mph ENE5.6 kmh ENE 7.6 mph12.2 kmh 29.86 in1011.2 mb 0.00 in0.0 mm 0.00 in0.0 mm 0.00 in0.0 mm
12:15 PM 104.7°F40.4°C 44.1°F6.7°C 13% 3.3 mph NE5.3 kmh NE 7.6 mph12.2 kmh 29.86 in1011.2 mb 0.00 in0.0 mm 0.00 in0.0 mm 0.00 in0.0 mm
12:20 PM 104.7°F40.4°C 47.9°F8.8°C 15% 2.9 mph N4.7 kmh N 7.6 mph12.2 kmh 29.86 in1011.2 mb 0.00 in0.0 mm 0.00 in0.0 mm 0.00 in0.0 mm
12:25 PM 105.3°F40.7°C 44.5°F6.9°C 13% 2.8 mph NNE4.5 kmh NNE 7.6 mph12.2 kmh 29.86 in1011.2 mb 0.00 in0.0 mm 0.00 in0.0 mm 0.00 in0.0 mm
12:30 PM 105.1°F40.6°C 44.4°F6.9°C 13% 3.8 mph NE6.1 kmh NE 11.4 mph18.3 kmh 29.86 in1011.2 mb 0.00 in0.0 mm 0.00 in0.0 mm 0.00 in0.0 mm
12:35 PM 105.1°F40.6°C 46.3°F7.9°C 14% 5.2 mph NE8.4 kmh NE 11.4 mph18.3 kmh 29.86 in1011.2 mb 0.00 in0.0 mm 0.00 in0.0 mm 0.00 in0.0 mm
12:40 PM 105.3°F40.7°C 44.5°F6.9°C 13% 4.4 mph ENE7.1 kmh ENE 9.2 mph14.8 kmh 29.85 in1010.8 mb 0.00 in0.0 mm 0.00 in0.0 mm 0.00 in0.0 mm
12:45 PM 105.3°F40.7°C 42.4°F5.8°C 12% 4.0 mph E6.4 kmh E 7.6 mph12.2 kmh 29.86 in1011.2 mb 0.00 in0.0 mm 0.00 in0.0 mm 0.00 in0.0 mm
12:50 PM 105.1°F40.6°C 37.6°F3.1°C 10% 4.4 mph E7.1 kmh E 7.6 mph12.2 kmh 29.85 in1010.8 mb 0.00 in0.0 mm 0.00 in0.0 mm 0.00 in0.0 mm
12:55 PM 105.3°F40.7°C 42.4°F5.8°C 12% 3.6 mph E5.8 kmh E 7.6 mph12.2 kmh 29.85 in1010.8 mb 0.00 in0.0 mm 0.00 in0.0 mm 0.00 in0.0 mm
01:00 PM 105.6°F40.9°C 44.8°F7.1°C 13% 3.4 mph NE5.5 kmh NE 7.6 mph12.2 kmh 29.85 in1010.8 mb 0.00 in0.0 mm 0.00 in0.0 mm 0.00 in0.0 mm
01:05 PM 105.8°F41.0°C 40.6°F4.8°C 11% 3.9 mph ENE6.3 kmh ENE 7.6 mph12.2 kmh 29.85 in1010.8 mb 0.00 in0.0 mm 0.00 in0.0 mm 0.00 in0.0 mm
01:10 PM 105.4°F40.8°C 37.9°F3.3°C 10% 3.5 mph SE5.6 kmh SE 6.9 mph11.1 kmh 29.85 in1010.8 mb 0.00 in0.0 mm 0.00 in0.0 mm 0.00 in0.0 mm
01:15 PM 105.6°F40.9°C 44.8°F7.1°C 13% 3.1 mph E5.0 kmh E 8.3 mph13.4 kmh 29.84 in1010.5 mb 0.00 in0.0 mm 0.00 in0.0 mm 0.00 in0.0 mm
01:20 PM 106.0°F41.1°C 43.0°F6.1°C 12% 3.9 mph ENE6.3 kmh ENE 9.2 mph14.8 kmh 29.85 in1010.8 mb 0.00 in0.0 mm 0.00 in0.0 mm 0.00 in0.0 mm
01:25 PM 106.2°F41.2°C 43.1°F6.2°C 12% 4.4 mph ENE7.1 kmh ENE 9.2 mph14.8 kmh 29.85 in1010.8 mb 0.00 in0.0 mm 0.00 in0.0 mm 0.00 in0.0 mm
01:30 PM 106.2°F41.2°C 43.1°F6.2°C 12% 4.2 mph NE6.8 kmh NE 9.8 mph15.8 kmh 29.85 in1010.8 mb 0.00 in0.0 mm 0.00 in0.0 mm 0.00 in0.0 mm
01:35 PM 106.0°F41.1°C 45.1°F7.3°C 13% 4.3 mph NE6.9 kmh NE 9.8 mph15.8 kmh 29.85 in1010.8 mb 0.00 in0.0 mm 0.00 in0.0 mm 0.00 in0.0 mm
01:40 PM 106.0°F41.1°C 47.0°F8.3°C 14% 4.7 mph NE7.6 kmh NE 9.8 mph15.8 kmh 29.84 in1010.5 mb 0.00 in0.0 mm 0.00 in0.0 mm 0.00 in0.0 mm
01:45 PM 106.2°F41.2°C 45.2°F7.3°C 13% 4.7 mph NE7.6 kmh NE 9.8 mph15.8 kmh 29.84 in1010.5 mb 0.00 in0.0 mm 0.00 in0.0 mm 0.00 in0.0 mm
01:50 PM 106.0°F41.1°C 47.0°F8.3°C 14% 4.8 mph NE7.7 kmh NE 10.7 mph17.2 kmh 29.84 in1010.5 mb 0.00 in0.0 mm 0.00 in0.0 mm 0.00 in0.0 mm
01:55 PM 106.0°F41.1°C 47.0°F8.3°C 14% 4.4 mph NE7.1 kmh NE 10.7 mph17.2 kmh 29.84 in1010.5 mb 0.00 in0.0 mm 0.00 in0.0 mm 0.00 in0.0 mm
02:00 PM 106.5°F41.4°C 47.5°F8.6°C 14% 3.7 mph NE6.0 kmh NE 9.2 mph14.8 kmh 29.84 in1010.5 mb 0.00 in0.0 mm 0.00 in0.0 mm 0.00 in0.0 mm
02:05 PM 106.3°F41.3°C 45.3°F7.4°C 13% 4.3 mph NNE6.9 kmh NNE 9.2 mph14.8 kmh 29.84 in1010.5 mb 0.00 in0.0 mm 0.00 in0.0 mm 0.00 in0.0 mm
02:10 PM 106.2°F41.2°C 49.0°F9.4°C 15% 4.5 mph NNE7.2 kmh NNE 9.2 mph14.8 kmh 29.84 in1010.5 mb 0.00 in0.0 mm 0.00 in0.0 mm 0.00 in0.0 mm
02:15 PM 106.5°F41.4°C 47.5°F8.6°C 14% 4.3 mph NE6.9 kmh NE 9.2 mph14.8 kmh 29.84 in1010.5 mb 0.00 in0.0 mm 0.00 in0.0 mm 0.00 in0.0 mm
02:20 PM 106.0°F41.1°C 45.1°F7.3°C 13% 4.1 mph NE6.6 kmh NE 8.3 mph13.4 kmh 29.83 in1010.2 mb 0.00 in0.0 mm 0.00 in0.0 mm 0.00 in0.0 mm
02:25 PM 106.3°F41.3°C 43.3°F6.3°C 12% 4.1 mph NE6.6 kmh NE 8.3 mph13.4 kmh 29.83 in1010.2 mb 0.00 in0.0 mm 0.00 in0.0 mm 0.00 in0.0 mm
02:30 PM 106.5°F41.4°C 45.5°F7.5°C 13% 4.2 mph NE6.8 kmh NE 8.3 mph13.4 kmh 29.83 in1010.2 mb 0.00 in0.0 mm 0.00 in0.0 mm 0.00 in0.0 mm
02:35 PM 106.5°F41.4°C 43.4°F6.3°C 12% 5.1 mph NNE8.2 kmh NNE 9.8 mph15.8 kmh 29.84 in1010.5 mb 0.00 in0.0 mm 0.00 in0.0 mm 0.00 in0.0 mm
02:40 PM 106.5°F41.4°C 45.5°F7.5°C 13% 5.5 mph NNE8.9 kmh NNE 9.8 mph15.8 kmh 29.83 in1010.2 mb 0.00 in0.0 mm 0.00 in0.0 mm 0.00 in0.0 mm
02:45 PM 106.3°F41.3°C 43.3°F6.3°C 12% 4.7 mph NE7.6 kmh NE 9.2 mph14.8 kmh 29.83 in1010.2 mb 0.00 in0.0 mm 0.00 in0.0 mm 0.00 in0.0 mm
02:50 PM 106.3°F41.3°C 45.3°F7.4°C 13% 4.6 mph NE7.4 kmh NE 9.2 mph14.8 kmh 29.83 in1010.2 mb 0.00 in0.0 mm 0.00 in0.0 mm 0.00 in0.0 mm
02:55 PM 106.3°F41.3°C 45.3°F7.4°C 13% 3.8 mph NE6.1 kmh NE 8.3 mph13.4 kmh 29.83 in1010.2 mb 0.00 in0.0 mm 0.00 in0.0 mm 0.00 in0.0 mm
03:00 PM 106.5°F41.4°C 43.4°F6.3°C 12% 3.7 mph NE6.0 kmh NE 7.6 mph12.2 kmh 29.83 in1010.2 mb 0.00 in0.0 mm 0.00 in0.0 mm 0.00 in0.0 mm
03:05 PM 106.7°F41.5°C 43.5°F6.4°C 12% 3.8 mph NE6.1 kmh NE 7.6 mph12.2 kmh 29.83 in1010.2 mb 0.00 in0.0 mm 0.00 in0.0 mm 0.00 in0.0 mm
03:10 PM 106.7°F41.5°C 43.5°F6.4°C 12% 3.8 mph NE6.1 kmh NE 9.2 mph14.8 kmh 29.83 in1010.2 mb 0.00 in0.0 mm 0.00 in0.0 mm 0.00 in0.0 mm
03:15 PM 106.3°F41.3°C 43.3°F6.3°C 12% 4.3 mph NE6.9 kmh NE 9.2 mph14.8 kmh 29.83 in1010.2 mb 0.00 in0.0 mm 0.00 in0.0 mm 0.00 in0.0 mm
03:20 PM 106.5°F41.4°C 49.3°F9.6°C 15% 3.6 mph NE5.8 kmh NE 8.3 mph13.4 kmh 29.82 in1009.8 mb 0.00 in0.0 mm 0.00 in0.0 mm 0.00 in0.0 mm
03:25 PM 106.3°F41.3°C 45.3°F7.4°C 13% 3.5 mph NE5.6 kmh NE 9.8 mph15.8 kmh 29.82 in1009.8 mb 0.00 in0.0 mm 0.00 in0.0 mm 0.00 in0.0 mm
03:30 PM 106.3°F41.3°C 47.3°F8.5°C 14% 4.4 mph NE7.1 kmh NE 9.8 mph15.8 kmh 29.82 in1009.8 mb 0.00 in0.0 mm 0.00 in0.0 mm 0.00 in0.0 mm
03:35 PM 106.2°F41.2°C 49.0°F9.4°C 15% 4.8 mph E7.7 kmh E 9.8 mph15.8 kmh 29.82 in1009.8 mb 0.00 in0.0 mm 0.00 in0.0 mm 0.00 in0.0 mm
03:40 PM 106.3°F41.3°C 47.3°F8.5°C 14% 4.2 mph E6.8 kmh E 9.8 mph15.8 kmh 29.82 in1009.8 mb 0.00 in0.0 mm 0.00 in0.0 mm 0.00 in0.0 mm
03:45 PM 106.3°F41.3°C 45.3°F7.4°C 13% 3.7 mph NE6.0 kmh NE 9.2 mph14.8 kmh 29.81 in1009.5 mb 0.00 in0.0 mm 0.00 in0.0 mm 0.00 in0.0 mm
03:50 PM 106.3°F41.3°C 47.3°F8.5°C 14% 4.3 mph NE6.9 kmh NE 7.6 mph12.2 kmh 29.82 in1009.8 mb 0.00 in0.0 mm 0.00 in0.0 mm 0.00 in0.0 mm
03:55 PM 106.3°F41.3°C 47.3°F8.5°C 14% 4.0 mph ENE6.4 kmh ENE 8.3 mph13.4 kmh 29.82 in1009.8 mb 0.00 in0.0 mm 0.00 in0.0 mm 0.00 in0.0 mm
04:00 PM 106.2°F41.2°C 45.2°F7.3°C 13% 4.1 mph E6.6 kmh E 9.2 mph14.8 kmh 29.81 in1009.5 mb 0.00 in0.0 mm 0.00 in0.0 mm 0.00 in0.0 mm
04:05 PM 105.8°F41.0°C 46.9°F8.3°C 14% 4.9 mph E7.9 kmh E 9.2 mph14.8 kmh 29.81 in1009.5 mb 0.00 in0.0 mm 0.00 in0.0 mm 0.00 in0.0 mm
04:10 PM 105.8°F41.0°C 46.9°F8.3°C 14% 4.7 mph E7.6 kmh E 9.2 mph14.8 kmh 29.81 in1009.5 mb 0.00 in0.0 mm 0.00 in0.0 mm 0.00 in0.0 mm
04:15 PM 105.6°F40.9°C 46.7°F8.2°C 14% 4.0 mph E6.4 kmh E 8.3 mph13.4 kmh 29.81 in1009.5 mb 0.00 in0.0 mm 0.00 in0.0 mm 0.00 in0.0 mm
04:20 PM 105.6°F40.9°C 46.7°F8.2°C 14% 4.3 mph E6.9 kmh E 9.2 mph14.8 kmh 29.81 in1009.5 mb 0.00 in0.0 mm 0.00 in0.0 mm 0.00 in0.0 mm
04:25 PM 105.6°F40.9°C 48.6°F9.2°C 15% 4.8 mph ENE7.7 kmh ENE 9.2 mph14.8 kmh 29.81 in1009.5 mb 0.00 in0.0 mm 0.00 in0.0 mm 0.00 in0.0 mm
04:30 PM 105.4°F40.8°C 50.2°F10.1°C 16% 4.8 mph NE7.7 kmh NE 9.2 mph14.8 kmh 29.80 in1009.1 mb 0.00 in0.0 mm 0.00 in0.0 mm 0.00 in0.0 mm
04:35 PM 105.4°F40.8°C 48.4°F9.1°C 15% 4.1 mph ENE6.6 kmh ENE 8.3 mph13.4 kmh 29.80 in1009.1 mb 0.00 in0.0 mm 0.00 in0.0 mm 0.00 in0.0 mm
04:40 PM 105.6°F40.9°C 52.0°F11.1°C 17% 3.5 mph E5.6 kmh E 7.6 mph12.2 kmh 29.80 in1009.1 mb 0.00 in0.0 mm 0.00 in0.0 mm 0.00 in0.0 mm
04:45 PM 105.6°F40.9°C 48.6°F9.2°C 15% 3.7 mph E6.0 kmh E 9.2 mph14.8 kmh 29.80 in1009.1 mb 0.00 in0.0 mm 0.00 in0.0 mm 0.00 in0.0 mm
04:50 PM 105.3°F40.7°C 48.3°F9.1°C 15% 4.2 mph NE6.8 kmh NE 9.2 mph14.8 kmh 29.80 in1009.1 mb 0.00 in0.0 mm 0.00 in0.0 mm 0.00 in0.0 mm
04:55 PM 104.9°F40.5°C 49.7°F9.8°C 16% 4.5 mph NE7.2 kmh NE 9.8 mph15.8 kmh 29.80 in1009.1 mb 0.00 in0.0 mm 0.00 in0.0 mm 0.00 in0.0 mm
05:00 PM 104.9°F40.5°C 49.7°F9.8°C 16% 4.4 mph ENE7.1 kmh ENE 9.8 mph15.8 kmh 29.80 in1009.1 mb 0.00 in0.0 mm 0.00 in0.0 mm 0.00 in0.0 mm
05:05 PM 104.7°F40.4°C 49.6°F9.8°C 16% 4.3 mph ENE6.9 kmh ENE 9.2 mph14.8 kmh 29.80 in1009.1 mb 0.00 in0.0 mm 0.00 in0.0 mm 0.00 in0.0 mm
05:10 PM 104.5°F40.3°C 51.1°F10.6°C 17% 4.1 mph ENE6.6 kmh ENE 9.2 mph14.8 kmh 29.80 in1009.1 mb 0.00 in0.0 mm 0.00 in0.0 mm 0.00 in0.0 mm
05:15 PM 104.4°F40.2°C 49.3°F9.6°C 16% 4.3 mph E6.9 kmh E 9.2 mph14.8 kmh 29.80 in1009.1 mb 0.00 in0.0 mm 0.00 in0.0 mm 0.00 in0.0 mm
05:20 PM 104.0°F40.0°C 49.0°F9.4°C 16% 5.1 mph E8.2 kmh E 9.2 mph14.8 kmh 29.80 in1009.1 mb 0.00 in0.0 mm 0.00 in0.0 mm 0.00 in0.0 mm
05:25 PM 103.8°F39.9°C 52.1°F11.2°C 18% 4.8 mph E7.7 kmh E 9.2 mph14.8 kmh 29.80 in1009.1 mb 0.00 in0.0 mm 0.00 in0.0 mm 0.00 in0.0 mm
05:30 PM 103.6°F39.8°C 50.4°F10.2°C 17% 4.3 mph ENE6.9 kmh ENE 8.3 mph13.4 kmh 29.80 in1009.1 mb 0.00 in0.0 mm 0.00 in0.0 mm 0.00 in0.0 mm
05:35 PM 103.6°F39.8°C 50.4°F10.2°C 17% 4.9 mph ENE7.9 kmh ENE 8.3 mph13.4 kmh 29.80 in1009.1 mb 0.00 in0.0 mm 0.00 in0.0 mm 0.00 in0.0 mm
05:40 PM 103.3°F39.6°C 50.1°F10.1°C 17% 4.8 mph ENE7.7 kmh ENE 9.2 mph14.8 kmh 29.80 in1009.1 mb 0.00 in0.0 mm 0.00 in0.0 mm 0.00 in0.0 mm
05:45 PM 103.1°F39.5°C 49.9°F9.9°C 17% 4.8 mph ENE7.7 kmh ENE 9.2 mph14.8 kmh 29.80 in1009.1 mb 0.00 in0.0 mm 0.00 in0.0 mm 0.00 in0.0 mm
05:50 PM 102.7°F39.3°C 51.2°F10.7°C 18% 4.5 mph ENE7.2 kmh ENE 8.3 mph13.4 kmh 29.80 in1009.1 mb 0.00 in0.0 mm 0.00 in0.0 mm 0.00 in0.0 mm
05:55 PM 102.6°F39.2°C 51.0°F10.6°C 18% 4.6 mph ENE7.4 kmh ENE 9.2 mph14.8 kmh 29.80 in1009.1 mb 0.00 in0.0 mm 0.00 in0.0 mm 0.00 in0.0 mm
06:00 PM 102.2°F39.0°C 50.7°F10.4°C 18% 4.9 mph ENE7.9 kmh ENE 9.8 mph15.8 kmh 29.80 in1009.1 mb 0.00 in0.0 mm 0.00 in0.0 mm 0.00 in0.0 mm
06:05 PM 102.2°F39.0°C 52.2°F11.2°C 19% 4.0 mph ENE6.4 kmh ENE 9.8 mph15.8 kmh 29.80 in1009.1 mb 0.00 in0.0 mm 0.00 in0.0 mm 0.00 in0.0 mm
06:10 PM 102.0°F38.9°C 52.1°F11.2°C 19% 3.3 mph E5.3 kmh E 6.9 mph11.1 kmh 29.80 in1009.1 mb 0.00 in0.0 mm 0.00 in0.0 mm 0.00 in0.0 mm
06:15 PM 101.8°F38.8°C 51.9°F11.1°C 19% 3.2 mph E5.1 kmh E 8.3 mph13.4 kmh 29.80 in1009.1 mb 0.00 in0.0 mm 0.00 in0.0 mm 0.00 in0.0 mm
06:20 PM 101.5°F38.6°C 53.0°F11.7°C 20% 3.5 mph E5.6 kmh E 8.3 mph13.4 kmh 29.80 in1009.1 mb 0.00 in0.0 mm 0.00 in0.0 mm 0.00 in0.0 mm
06:25 PM 101.3°F38.5°C 52.9°F11.6°C 20% 3.2 mph E5.1 kmh E 8.3 mph13.4 kmh 29.80 in1009.1 mb 0.00 in0.0 mm 0.00 in0.0 mm 0.00 in0.0 mm
06:30 PM 101.1°F38.4°C 52.7°F11.5°C 20% 3.2 mph ENE5.1 kmh ENE 6.9 mph11.1 kmh 29.79 in1008.8 mb 0.00 in0.0 mm 0.00 in0.0 mm 0.00 in0.0 mm
06:35 PM 100.8°F38.2°C 52.4°F11.3°C 20% 3.4 mph ENE5.5 kmh ENE 6.9 mph11.1 kmh 29.80 in1009.1 mb 0.00 in0.0 mm 0.00 in0.0 mm 0.00 in0.0 mm
06:40 PM 100.6°F38.1°C 52.3°F11.3°C 20% 3.4 mph ENE5.5 kmh ENE 6.0 mph9.7 kmh 29.80 in1009.1 mb 0.00 in0.0 mm 0.00 in0.0 mm 0.00 in0.0 mm
06:45 PM 100.2°F37.9°C 53.3°F11.8°C 21% 3.3 mph E5.3 kmh E 6.0 mph9.7 kmh 29.80 in1009.1 mb 0.00 in0.0 mm 0.00 in0.0 mm 0.00 in0.0 mm
06:50 PM 99.9°F37.7°C 53.0°F11.7°C 21% 2.9 mph E4.7 kmh E 6.0 mph9.7 kmh 29.80 in1009.1 mb 0.00 in0.0 mm 0.00 in0.0 mm 0.00 in0.0 mm
06:55 PM 99.7°F37.6°C 54.1°F12.3°C 22% 2.4 mph ENE3.9 kmh ENE 5.4 mph8.7 kmh 29.80 in1009.1 mb 0.00 in0.0 mm 0.00 in0.0 mm 0.00 in0.0 mm
07:00 PM 99.3°F37.4°C 52.6°F11.4°C 21% 1.9 mph NE3.1 kmh NE 6.0 mph9.7 kmh 29.80 in1009.1 mb 0.00 in0.0 mm 0.00 in0.0 mm 0.00 in0.0 mm
07:05 PM 99.0°F37.2°C 53.5°F11.9°C 22% 2.1 mph NE3.4 kmh NE 6.0 mph9.7 kmh 29.80 in1009.1 mb 0.00 in0.0 mm 0.00 in0.0 mm 0.00 in0.0 mm
07:10 PM 98.8°F37.1°C 54.6°F12.6°C 23% 1.6 mph ENE2.6 kmh ENE 6.0 mph9.7 kmh 29.80 in1009.1 mb 0.00 in0.0 mm 0.00 in0.0 mm 0.00 in0.0 mm
07:15 PM 98.4°F36.9°C 54.3°F12.4°C 23% 0.6 mph ESE1.0 kmh ESE 3.1 mph5.0 kmh 29.80 in1009.1 mb 0.00 in0.0 mm 0.00 in0.0 mm 0.00 in0.0 mm
07:20 PM 98.1°F36.7°C 54.0°F12.2°C 23% 0.5 mph SE0.8 kmh SE 3.8 mph6.1 kmh 29.80 in1009.1 mb 0.00 in0.0 mm 0.00 in0.0 mm 0.00 in0.0 mm
07:25 PM 97.7°F36.5°C 53.7°F12.1°C 23% 0.9 mph E1.4 kmh E 3.8 mph6.1 kmh 29.79 in1008.8 mb 0.00 in0.0 mm 0.00 in0.0 mm 0.00 in0.0 mm
07:30 PM 97.5°F36.4°C 54.7°F12.6°C 24% 1.1 mph ESE1.8 kmh ESE 3.8 mph6.1 kmh 29.79 in1008.8 mb 0.00 in0.0 mm 0.00 in0.0 mm 0.00 in0.0 mm
07:35 PM 97.2°F36.2°C 55.5°F13.1°C 25% 0.7 mph SE1.1 kmh SE 3.1 mph5.0 kmh 29.79 in1008.8 mb 0.00 in0.0 mm 0.00 in0.0 mm 0.00 in0.0 mm
07:40 PM 96.8°F36.0°C 55.2°F12.9°C 25% 0.4 mph E0.6 kmh E 2.2 mph3.5 kmh 29.80 in1009.1 mb 0.00 in0.0 mm 0.00 in0.0 mm 0.00 in0.0 mm
07:45 PM 96.4°F35.8°C 57.1°F13.9°C 27% 0.2 mph N0.3 kmh N 2.2 mph3.5 kmh 29.80 in1009.1 mb 0.00 in0.0 mm 0.00 in0.0 mm 0.00 in0.0 mm
07:50 PM 95.9°F35.5°C 55.6°F13.1°C 26% 0.1 mph NW0.2 kmh NW 1.6 mph2.6 kmh 29.79 in1008.8 mb 0.00 in0.0 mm 0.00 in0.0 mm 0.00 in0.0 mm
07:55 PM 95.7°F35.4°C 55.4°F13.0°C 26% Calm Calm 1.6 mph2.6 kmh 29.79 in1008.8 mb 0.00 in0.0 mm 0.00 in0.0 mm 0.00 in0.0 mm
08:00 PM 95.2°F35.1°C 55.0°F12.8°C 26% Calm Calm 0.7 mph1.1 kmh 29.80 in1009.1 mb 0.00 in0.0 mm 0.00 in0.0 mm 0.00 in0.0 mm
08:05 PM 94.6°F34.8°C 55.5°F13.1°C 27% Calm Calm 0.7 mph1.1 kmh 29.79 in1008.8 mb 0.00 in0.0 mm 0.00 in0.0 mm 0.00 in0.0 mm
08:10 PM 94.6°F34.8°C 54.5°F12.5°C 26% Calm Calm 0.7 mph1.1 kmh 29.80 in1009.1 mb 0.00 in0.0 mm 0.00 in0.0 mm 0.00 in0.0 mm
08:15 PM 94.5°F34.7°C 55.4°F13.0°C 27% Calm Calm -- 29.80 in1009.1 mb 0.00 in0.0 mm 0.00 in0.0 mm 0.00 in0.0 mm
08:20 PM 93.9°F34.4°C 55.9°F13.3°C 28% 0.2 mph SW0.3 kmh SW 4.5 mph7.2 kmh 29.80 in1009.1 mb 0.00 in0.0 mm 0.00 in0.0 mm 0.00 in0.0 mm
08:25 PM 92.7°F33.7°C 54.8°F12.7°C 28% 1.5 mph SW2.4 kmh SW 4.5 mph7.2 kmh 29.79 in1008.8 mb 0.00 in0.0 mm 0.00 in0.0 mm 0.00 in0.0 mm
08:30 PM 91.8°F33.2°C 54.1°F12.3°C 28% 2.3 mph SW3.7 kmh SW 4.5 mph7.2 kmh 29.80 in1009.1 mb 0.00 in0.0 mm 0.00 in0.0 mm 0.00 in0.0 mm
08:35 PM 90.9°F32.7°C 53.3°F11.8°C 28% 2.3 mph SW3.7 kmh SW 3.8 mph6.1 kmh 29.79 in1008.8 mb 0.00 in0.0 mm 0.00 in0.0 mm 0.00 in0.0 mm
08:40 PM 90.3°F32.4°C 52.8°F11.6°C 28% 2.5 mph SW4.0 kmh SW 4.5 mph7.2 kmh 29.79 in1008.8 mb 0.00 in0.0 mm 0.00 in0.0 mm 0.00 in0.0 mm
08:45 PM 90.0°F32.2°C 52.5°F11.4°C 28% 2.3 mph SW3.7 kmh SW 4.5 mph7.2 kmh 29.80 in1009.1 mb 0.00 in0.0 mm 0.00 in0.0 mm 0.00 in0.0 mm
08:50 PM 89.6°F32.0°C 52.2°F11.2°C 28% 2.1 mph SW3.4 kmh SW 3.8 mph6.1 kmh 29.79 in1008.8 mb 0.00 in0.0 mm 0.00 in0.0 mm 0.00 in0.0 mm
08:55 PM 89.1°F31.7°C 51.8°F11.0°C 28% 2.0 mph SW3.2 kmh SW 3.8 mph6.1 kmh 29.80 in1009.1 mb 0.00 in0.0 mm 0.00 in0.0 mm 0.00 in0.0 mm
09:00 PM 88.9°F31.6°C 51.6°F10.9°C 28% 1.3 mph SW2.1 kmh SW 3.8 mph6.1 kmh 29.80 in1009.1 mb 0.00 in0.0 mm 0.00 in0.0 mm 0.00 in0.0 mm
09:05 PM 88.9°F31.6°C 51.6°F10.9°C 28% 0.6 mph SW1.0 kmh SW 2.2 mph3.5 kmh 29.80 in1009.1 mb 0.00 in0.0 mm 0.00 in0.0 mm 0.00 in0.0 mm
09:10 PM 88.9°F31.6°C 51.6°F10.9°C 28% 0.4 mph SW0.6 kmh SW 2.2 mph3.5 kmh 29.80 in1009.1 mb 0.00 in0.0 mm 0.00 in0.0 mm 0.00 in0.0 mm
09:15 PM 89.1°F31.7°C 51.8°F11.0°C 28% 0.5 mph SW0.8 kmh SW 3.8 mph6.1 kmh 29.80 in1009.1 mb 0.00 in0.0 mm 0.00 in0.0 mm 0.00 in0.0 mm
09:20 PM 89.1°F31.7°C 51.8°F11.0°C 28% 0.9 mph SW1.4 kmh SW 4.5 mph7.2 kmh 29.80 in1009.1 mb 0.00 in0.0 mm 0.00 in0.0 mm 0.00 in0.0 mm
09:25 PM 89.1°F31.7°C 51.8°F11.0°C 28% 1.2 mph SW1.9 kmh SW 5.4 mph8.7 kmh 29.80 in1009.1 mb 0.00 in0.0 mm 0.00 in0.0 mm 0.00 in0.0 mm
09:30 PM 89.1°F31.7°C 51.8°F11.0°C 28% 1.7 mph W2.7 kmh W 6.0 mph9.7 kmh 29.81 in1009.5 mb 0.00 in0.0 mm 0.00 in0.0 mm 0.00 in0.0 mm
09:35 PM 89.1°F31.7°C 51.8°F11.0°C 28% 1.7 mph WSW2.7 kmh WSW 6.0 mph9.7 kmh 29.80 in1009.1 mb 0.00 in0.0 mm 0.00 in0.0 mm 0.00 in0.0 mm
09:40 PM 88.9°F31.6°C 51.6°F10.9°C 28% 0.8 mph SW1.3 kmh SW 3.8 mph6.1 kmh 29.80 in1009.1 mb 0.00 in0.0 mm 0.00 in0.0 mm 0.00 in0.0 mm
09:45 PM 88.5°F31.4°C 51.3°F10.7°C 28% 0.7 mph W1.1 kmh W 3.8 mph6.1 kmh 29.80 in1009.1 mb 0.00 in0.0 mm 0.00 in0.0 mm 0.00 in0.0 mm
09:50 PM 88.3°F31.3°C 51.2°F10.7°C 28% 1.1 mph W1.8 kmh W 5.4 mph8.7 kmh 29.81 in1009.5 mb 0.00 in0.0 mm 0.00 in0.0 mm 0.00 in0.0 mm
09:55 PM 88.0°F31.1°C 50.8°F10.4°C 28% 0.9 mph WSW1.4 kmh WSW 5.4 mph8.7 kmh 29.81 in1009.5 mb 0.00 in0.0 mm 0.00 in0.0 mm 0.00 in0.0 mm
10:00 PM 87.6°F30.9°C 50.5°F10.3°C 28% 0.1 mph SW0.2 kmh SW 3.1 mph5.0 kmh 29.81 in1009.5 mb 0.00 in0.0 mm 0.00 in0.0 mm 0.00 in0.0 mm
10:05 PM 87.4°F30.8°C 50.4°F10.2°C 28% 0.1 mph SSW0.2 kmh SSW 3.1 mph5.0 kmh 29.80 in1009.1 mb 0.00 in0.0 mm 0.00 in0.0 mm 0.00 in0.0 mm
10:10 PM 87.3°F30.7°C 50.2°F10.1°C 28% 0.3 mph SW0.5 kmh SW 3.1 mph5.0 kmh 29.80 in1009.1 mb 0.00 in0.0 mm 0.00 in0.0 mm 0.00 in0.0 mm
10:15 PM 87.3°F30.7°C 50.2°F10.1°C 28% 0.3 mph SW0.5 kmh SW 3.1 mph5.0 kmh 29.81 in1009.5 mb 0.00 in0.0 mm 0.00 in0.0 mm 0.00 in0.0 mm
10:20 PM 86.7°F30.4°C 49.8°F9.9°C 28% 0.8 mph SSW1.3 kmh SSW 3.8 mph6.1 kmh 29.80 in1009.1 mb 0.00 in0.0 mm 0.00 in0.0 mm 0.00 in0.0 mm
10:25 PM 86.0°F30.0°C 49.2°F9.6°C 28% 1.1 mph SW1.8 kmh SW 3.8 mph6.1 kmh 29.80 in1009.1 mb 0.00 in0.0 mm 0.00 in0.0 mm 0.00 in0.0 mm
10:30 PM 85.5°F29.7°C 48.7°F9.3°C 28% 0.5 mph SSW0.8 kmh SSW 3.1 mph5.0 kmh 29.80 in1009.1 mb 0.00 in0.0 mm 0.00 in0.0 mm 0.00 in0.0 mm
10:35 PM 85.1°F29.5°C 48.4°F9.1°C 28% 0.2 mph SSW0.3 kmh SSW 2.2 mph3.5 kmh 29.81 in1009.5 mb 0.00 in0.0 mm 0.00 in0.0 mm 0.00 in0.0 mm
10:40 PM 85.3°F29.6°C 48.5°F9.2°C 28% 0.2 mph SW0.3 kmh SW 2.2 mph3.5 kmh 29.80 in1009.1 mb 0.00 in0.0 mm 0.00 in0.0 mm 0.00 in0.0 mm
10:45 PM 85.3°F29.6°C 48.5°F9.2°C 28% 0.2 mph SW0.3 kmh SW 3.1 mph5.0 kmh 29.81 in1009.5 mb 0.00 in0.0 mm 0.00 in0.0 mm 0.00 in0.0 mm
10:50 PM 85.3°F29.6°C 48.5°F9.2°C 28% 0.3 mph SW0.5 kmh SW 3.1 mph5.0 kmh 29.81 in1009.5 mb 0.00 in0.0 mm 0.00 in0.0 mm 0.00 in0.0 mm
10:55 PM 85.1°F29.5°C 48.4°F9.1°C 28% 0.8 mph SSW1.3 kmh SSW 3.8 mph6.1 kmh 29.81 in1009.5 mb 0.00 in0.0 mm 0.00 in0.0 mm 0.00 in0.0 mm
11:00 PM 85.1°F29.5°C 48.4°F9.1°C 28% 1.4 mph SW2.3 kmh SW 3.8 mph6.1 kmh 29.81 in1009.5 mb 0.00 in0.0 mm 0.00 in0.0 mm 0.00 in0.0 mm
11:05 PM 84.7°F29.3°C 48.1°F8.9°C 28% 0.9 mph SW1.4 kmh SW 3.8 mph6.1 kmh 29.81 in1009.5 mb 0.00 in0.0 mm 0.00 in0.0 mm 0.00 in0.0 mm
11:10 PM 84.2°F29.0°C 47.6°F8.7°C 28% 0.1 mph SW0.2 kmh SW 3.1 mph5.0 kmh 29.81 in1009.5 mb 0.00 in0.0 mm 0.00 in0.0 mm 0.00 in0.0 mm
11:15 PM 84.0°F28.9°C 47.5°F8.6°C 28% 0.4 mph SW0.6 kmh SW 3.1 mph5.0 kmh 29.81 in1009.5 mb 0.00 in0.0 mm 0.00 in0.0 mm 0.00 in0.0 mm
11:20 PM 83.8°F28.8°C 47.3°F8.5°C 28% 0.9 mph SW1.4 kmh SW 3.1 mph5.0 kmh 29.81 in1009.5 mb 0.00 in0.0 mm 0.00 in0.0 mm 0.00 in0.0 mm
11:25 PM 84.0°F28.9°C 47.5°F8.6°C 28% 1.3 mph WSW2.1 kmh WSW 5.4 mph8.7 kmh 29.81 in1009.5 mb 0.00 in0.0 mm 0.00 in0.0 mm 0.00 in0.0 mm
11:30 PM 84.0°F28.9°C 47.5°F8.6°C 28% 1.2 mph WSW1.9 kmh WSW 5.4 mph8.7 kmh 29.81 in1009.5 mb 0.00 in0.0 mm 0.00 in0.0 mm 0.00 in0.0 mm
11:35 PM 84.2°F29.0°C 47.6°F8.7°C 28% 0.9 mph SW1.4 kmh SW 3.8 mph6.1 kmh 29.81 in1009.5 mb 0.00 in0.0 mm 0.00 in0.0 mm 0.00 in0.0 mm
11:40 PM 84.4°F29.1°C 47.8°F8.8°C 28% 1.0 mph SW1.6 kmh SW 3.8 mph6.1 kmh 29.81 in1009.5 mb 0.00 in0.0 mm 0.00 in0.0 mm 0.00 in0.0 mm
11:45 PM 84.4°F29.1°C 47.8°F8.8°C 28% 1.1 mph WSW1.8 kmh WSW 5.4 mph8.7 kmh 29.81 in1009.5 mb 0.00 in0.0 mm 0.00 in0.0 mm 0.00 in0.0 mm
11:50 PM 84.4°F29.1°C 47.8°F8.8°C 28% 1.0 mph WSW1.6 kmh WSW 5.4 mph8.7 kmh 29.81 in1009.5 mb 0.00 in0.0 mm 0.00 in0.0 mm 0.00 in0.0 mm
11:55 PM 84.2°F29.0°C 47.6°F8.7°C 28% 0.6 mph WSW1.0 kmh WSW 3.1 mph5.0 kmh 29.81 in1009.5 mb 0.00 in0.0 mm 0.00 in0.0 mm 0.00 in0.0 mm